createdAt,value
2018-11-05T00:00:46.018Z,52.60
2018-11-05T00:03:15.109Z,52.23
2018-11-05T00:05:44.938Z,49.83
2018-11-05T00:08:13.855Z,48.13
2018-11-05T00:10:42.857Z,55.63
2018-11-05T00:13:11.788Z,51.47
2018-11-05T00:15:40.637Z,58.17
2018-11-05T00:18:09.667Z,50.80
2018-11-05T00:20:38.525Z,55.07
2018-11-05T00:23:07.577Z,56.80
2018-11-05T00:25:36.453Z,57.17
2018-11-05T00:28:05.716Z,53.60
2018-11-05T00:30:34.623Z,55.47
2018-11-05T00:33:03.606Z,55.30
2018-11-05T00:35:32.487Z,53.50
2018-11-05T00:38:01.308Z,54.67
2018-11-05T00:40:30.206Z,53.83
2018-11-05T00:42:59.025Z,58.23
2018-11-05T00:45:27.904Z,57.67
2018-11-05T00:47:56.930Z,55.37
2018-11-05T00:50:25.862Z,58.13
2018-11-05T00:52:54.722Z,56.73
2018-11-05T00:55:23.972Z,58.63
2018-11-05T00:57:52.754Z,53.20
2018-11-05T01:00:21.691Z,56.97
2018-11-05T01:02:50.845Z,55.80
2018-11-05T01:05:19.723Z,62.17
2018-11-05T01:07:48.592Z,57.73
2018-11-05T01:10:17.458Z,62.90
2018-11-05T01:12:46.335Z,58.33
2018-11-05T01:15:16.421Z,63.03
2018-11-05T01:17:45.369Z,65.60
2018-11-05T01:20:15.380Z,58.13
2018-11-05T01:22:44.285Z,56.70
2018-11-05T01:25:14.129Z,62.33
2018-11-05T01:27:42.971Z,60.83
2018-11-05T01:30:13.170Z,62.67
2018-11-05T01:32:42.052Z,57.97
2018-11-05T01:35:12.175Z,56.10
2018-11-05T01:37:41.216Z,58.43
2018-11-05T01:40:13.524Z,64.10
2018-11-05T01:42:42.484Z,64.07
2018-11-05T01:45:12.505Z,59.77
2018-11-05T01:47:42.155Z,57.87
2018-11-05T01:50:13.460Z,61.47
2018-11-05T01:52:42.910Z,60.40
2018-11-05T01:55:11.865Z,71.40
2018-11-05T01:57:41.282Z,57.43
2018-11-05T02:00:13.607Z,72.50
2018-11-05T02:02:43.071Z,62.47
2018-11-05T02:05:11.935Z,61.83
2018-11-05T02:07:42.100Z,62.30
2018-11-05T02:10:13.343Z,63.67
2018-11-05T02:12:42.285Z,66.67
2018-11-05T02:15:11.813Z,68.20
2018-11-05T02:17:42.307Z,60.73
2018-11-05T02:20:12.017Z,63.87
2018-11-05T02:22:40.946Z,60.70
2018-11-05T02:25:11.065Z,61.37
2018-11-05T02:27:40.422Z,68.10
2018-11-05T02:30:13.635Z,60.23
2018-11-05T02:32:42.555Z,61.43
2018-11-05T02:35:12.766Z,58.60
2018-11-05T02:37:43.007Z,64.67
2018-11-05T02:40:13.933Z,55.73
2018-11-05T02:42:43.609Z,59.87
2018-11-05T02:45:14.445Z,60.40
2018-11-05T02:47:43.434Z,58.60
2018-11-05T02:50:13.573Z,53.47
2018-11-05T02:52:43.421Z,61.27
2018-11-05T02:55:12.352Z,54.07
2018-11-05T02:57:41.243Z,62.27
2018-11-05T03:00:14.532Z,53.10
2018-11-05T03:02:43.605Z,53.53
2018-11-05T03:05:14.477Z,49.53
2018-11-05T03:07:44.262Z,52.43
2018-11-05T03:10:13.701Z,46.30
2018-11-05T03:12:43.276Z,47.37
2018-11-05T03:15:13.432Z,44.63
2018-11-05T03:17:42.425Z,47.07
2018-11-05T03:20:12.908Z,47.73
2018-11-05T03:22:42.610Z,43.90
2018-11-05T03:25:11.596Z,45.20
2018-11-05T03:27:41.146Z,45.67
2018-11-05T03:30:17.664Z,42.57
2018-11-05T03:32:46.974Z,44.23
2018-11-05T03:35:15.960Z,44.37
2018-11-05T03:37:45.715Z,42.37
2018-11-05T03:40:14.937Z,48.73
2018-11-05T03:42:44.065Z,44.93
2018-11-05T03:45:14.132Z,42.27
2018-11-05T03:47:43.325Z,43.73
2018-11-05T03:50:14.476Z,46.43
2018-11-05T03:52:44.168Z,42.60
2018-11-05T03:55:14.037Z,50.77
2018-11-05T03:57:43.056Z,47.13
2018-11-05T04:00:14.938Z,50.47
2018-11-05T04:02:44.333Z,48.53
2018-11-05T04:05:13.259Z,47.33
2018-11-05T04:07:42.268Z,49.53
2018-11-05T04:10:12.334Z,48.57
2018-11-05T04:12:41.254Z,47.73
2018-11-05T04:15:10.723Z,48.93
2018-11-05T04:17:39.618Z,48.40
2018-11-05T04:20:11.183Z,54.27
2018-11-05T04:22:40.511Z,55.50
2018-11-05T04:25:09.397Z,52.27
2018-11-05T04:27:38.327Z,48.53
2018-11-05T04:30:10.983Z,47.90
2018-11-05T04:32:40.174Z,53.23
2018-11-05T04:35:09.641Z,50.70
2018-11-05T04:37:38.580Z,53.70
2018-11-05T04:40:09.023Z,50.33
2018-11-05T04:42:37.908Z,51.90
2018-11-05T04:45:13.403Z,52.53
2018-11-05T04:47:43.018Z,48.40
2018-11-05T04:50:12.990Z,53.23
2018-11-05T04:52:42.792Z,54.50
2018-11-05T04:55:11.737Z,53.83
2018-11-05T04:57:40.639Z,48.77
2018-11-05T05:00:14.580Z,53.63
2018-11-05T05:02:43.645Z,51.53
2018-11-05T05:05:13.656Z,53.10
2018-11-05T05:07:43.042Z,53.90
2018-11-05T05:10:12.020Z,56.00
2018-11-05T05:12:41.770Z,59.70
2018-11-05T05:15:11.169Z,55.43
2018-11-05T05:17:40.623Z,58.37
2018-11-05T05:20:12.497Z,58.57
2018-11-05T05:22:42.244Z,60.73
2018-11-05T05:25:11.026Z,57.87
2018-11-05T05:27:40.050Z,63.77
2018-11-05T05:30:14.095Z,66.90
2018-11-05T05:32:43.648Z,62.10
2018-11-05T05:35:12.570Z,64.67
2018-11-05T05:37:41.860Z,64.20
2018-11-05T05:40:11.177Z,70.20
2018-11-05T05:42:40.363Z,67.83
2018-11-05T05:45:10.592Z,64.73
2018-11-05T05:47:39.691Z,65.37
2018-11-05T05:50:12.304Z,75.83
2018-11-05T05:52:42.205Z,69.37
2018-11-05T05:55:11.258Z,79.57
2018-11-05T05:57:40.117Z,81.03
2018-11-05T06:00:11.859Z,78.40
2018-11-05T06:02:40.680Z,73.70
2018-11-05T06:05:11.900Z,75.57
2018-11-05T06:07:41.280Z,70.27
2018-11-05T06:10:12.103Z,74.87
2018-11-05T06:12:41.004Z,74.73
2018-11-05T06:15:12.386Z,75.53
2018-11-05T06:17:41.815Z,76.33
2018-11-05T06:20:16.735Z,77.77
2018-11-05T06:22:46.458Z,76.17
2018-11-05T06:25:15.715Z,71.10
2018-11-05T06:27:44.715Z,69.33
2018-11-05T06:30:17.000Z,79.23
2018-11-05T06:32:46.758Z,77.67
2018-11-05T06:35:15.699Z,76.73
2018-11-05T06:37:44.653Z,68.53
2018-11-05T06:40:16.051Z,76.40
2018-11-05T06:42:45.388Z,82.80
2018-11-05T06:45:16.568Z,71.50
2018-11-05T06:47:46.464Z,73.63
2018-11-05T06:50:18.315Z,78.97
2018-11-05T06:52:47.217Z,69.63
2018-11-05T06:55:16.315Z,76.83
2018-11-05T06:57:45.301Z,72.27
2018-11-05T07:00:17.498Z,75.17
2018-11-05T07:02:46.598Z,72.20
2018-11-05T07:05:15.680Z,74.73
2018-11-05T07:07:44.593Z,84.60
2018-11-05T07:10:14.734Z,70.23
2018-11-05T07:12:44.289Z,74.17
2018-11-05T07:15:14.557Z,72.07
2018-11-05T07:17:44.640Z,69.13
2018-11-05T07:20:16.176Z,72.53
2018-11-05T07:22:45.743Z,73.83
2018-11-05T07:25:15.408Z,76.40
2018-11-05T07:27:44.371Z,74.70
2018-11-05T07:30:16.635Z,74.50
2018-11-05T07:32:46.135Z,73.70
2018-11-05T07:35:15.568Z,73.57
2018-11-05T07:37:44.472Z,75.20
2018-11-05T07:40:14.873Z,78.37
2018-11-05T07:42:43.793Z,81.80
2018-11-05T07:45:17.661Z,82.60
2018-11-05T07:47:46.983Z,79.70
2018-11-05T07:50:16.980Z,81.23
2018-11-05T07:52:45.769Z,76.33
2018-11-05T07:55:15.922Z,81.57
2018-11-05T07:57:45.688Z,82.97
2018-11-05T08:00:21.354Z,78.93
2018-11-05T08:02:52.197Z,82.50
2018-11-05T08:05:21.805Z,82.23
2018-11-05T08:07:50.820Z,76.10
2018-11-05T08:10:19.814Z,78.43
2018-11-05T08:12:48.833Z,81.80
2018-11-05T08:15:19.826Z,72.90
2018-11-05T08:17:49.616Z,72.83
2018-11-05T08:20:18.532Z,68.97
2018-11-05T08:22:47.496Z,72.37
2018-11-05T08:25:16.972Z,72.27
2018-11-05T08:27:45.890Z,74.57
2018-11-05T08:30:19.012Z,65.70
2018-11-05T08:32:47.964Z,67.27
2018-11-05T08:35:16.882Z,73.77
2018-11-05T08:37:46.651Z,77.20
2018-11-05T08:40:18.240Z,67.77
2018-11-05T08:42:48.102Z,71.20
2018-11-05T08:45:24.213Z,71.80
2018-11-05T08:47:53.105Z,70.93
2018-11-05T08:50:22.866Z,75.77
2018-11-05T08:52:51.681Z,68.90
2018-11-05T08:55:23.713Z,66.63
2018-11-05T08:57:52.590Z,72.87
2018-11-05T09:00:27.477Z,67.70
2018-11-05T09:02:56.382Z,72.13
2018-11-05T09:05:25.331Z,66.10
2018-11-05T09:07:54.939Z,67.73
2018-11-05T09:10:23.969Z,66.20
2018-11-05T09:12:52.806Z,71.67
2018-11-05T09:15:22.315Z,68.80
2018-11-05T09:17:51.644Z,64.17
2018-11-05T09:20:20.889Z,62.67
2018-11-05T09:22:50.535Z,60.77
2018-11-05T09:25:19.458Z,68.67
2018-11-05T09:27:48.441Z,69.17
2018-11-05T09:30:18.785Z,64.37
2018-11-05T09:32:47.752Z,56.77
2018-11-05T09:35:16.740Z,66.63
2018-11-05T09:37:45.753Z,67.40
2018-11-05T09:40:19.300Z,65.03
2018-11-05T09:42:48.673Z,60.10
2018-11-05T09:45:24.997Z,66.23
2018-11-05T09:47:53.915Z,59.37
2018-11-05T09:50:23.082Z,61.93
2018-11-05T09:52:52.085Z,64.33
2018-11-05T09:55:21.029Z,66.83
2018-11-05T09:57:49.944Z,58.87
2018-11-05T10:00:20.443Z,55.47
2018-11-05T10:02:54.795Z,56.77
2018-11-05T10:05:23.763Z,57.20
2018-11-05T10:07:52.637Z,60.30
2018-11-05T10:10:21.618Z,61.03
2018-11-05T10:12:50.480Z,65.80
2018-11-05T10:15:19.462Z,69.60
2018-11-05T10:17:48.439Z,60.73
2018-11-05T10:20:19.447Z,61.13
2018-11-05T10:22:48.351Z,59.10
2018-11-05T10:25:17.510Z,61.67
2018-11-05T10:27:47.210Z,59.93
2018-11-05T10:30:19.186Z,58.47
2018-11-05T10:32:48.079Z,54.77
2018-11-05T10:35:17.741Z,58.90
2018-11-05T10:37:46.712Z,62.13
2018-11-05T10:40:17.957Z,60.03
2018-11-05T10:42:47.294Z,60.33
2018-11-05T10:45:17.310Z,67.37
2018-11-05T10:47:46.208Z,61.00
2018-11-05T10:50:16.116Z,65.13
2018-11-05T10:52:46.422Z,64.27
2018-11-05T10:55:15.552Z,61.17
2018-11-05T10:57:44.830Z,64.00
2018-11-05T11:00:25.631Z,66.80
2018-11-05T11:03:00.045Z,67.70
2018-11-05T11:05:30.139Z,64.20
2018-11-05T11:07:59.982Z,67.30
2018-11-05T11:10:29.497Z,69.33
2018-11-05T11:12:58.815Z,68.20
2018-11-05T11:15:27.724Z,63.23
2018-11-05T11:17:57.133Z,66.07
2018-11-05T11:20:26.071Z,67.57
2018-11-05T11:22:54.952Z,67.97
2018-11-05T11:25:23.883Z,64.40
2018-11-05T11:27:52.882Z,77.07
2018-11-05T11:30:21.917Z,71.60
2018-11-05T11:32:51.714Z,72.73
2018-11-05T11:35:20.888Z,70.47
2018-11-05T11:37:50.110Z,69.23
2018-11-05T11:40:20.498Z,70.00
2018-11-05T11:42:49.916Z,77.30
2018-11-05T11:45:24.242Z,67.50
2018-11-05T11:47:53.145Z,71.77
2018-11-05T11:50:22.138Z,59.20
2018-11-05T11:52:51.222Z,64.97
2018-11-05T11:55:21.405Z,67.53
2018-11-05T11:57:50.357Z,66.13
2018-11-05T12:00:24.170Z,60.00
2018-11-05T12:02:53.670Z,67.07
2018-11-05T12:05:22.763Z,61.17
2018-11-05T12:07:51.531Z,64.60
2018-11-05T12:10:23.367Z,61.07
2018-11-05T12:12:52.445Z,64.77
2018-11-05T12:15:22.131Z,60.30
2018-11-05T12:17:51.992Z,66.33
2018-11-05T12:20:22.143Z,60.70
2018-11-05T12:22:51.524Z,61.03
2018-11-05T12:25:20.545Z,60.93
2018-11-05T12:27:49.755Z,66.27
2018-11-05T12:30:22.958Z,60.33
2018-11-05T12:32:53.047Z,59.23
2018-11-05T12:35:22.057Z,58.30
2018-11-05T12:37:52.052Z,60.30
2018-11-05T12:40:21.804Z,59.07
2018-11-05T12:42:51.446Z,64.23
2018-11-05T12:45:26.646Z,60.10
2018-11-05T12:47:55.637Z,61.90
2018-11-05T12:50:24.681Z,72.83
2018-11-05T12:52:54.469Z,69.17
2018-11-05T12:55:23.435Z,65.63
2018-11-05T12:57:52.356Z,65.07
2018-11-05T13:00:22.769Z,58.77
2018-11-05T13:02:58.207Z,64.37
2018-11-05T13:05:27.990Z,63.37
2018-11-05T13:07:56.856Z,67.67
2018-11-05T13:10:25.933Z,65.90
2018-11-05T13:12:54.904Z,73.80
2018-11-05T13:15:23.947Z,70.07
2018-11-05T13:17:52.813Z,63.57
2018-11-05T13:20:22.788Z,62.40
2018-11-05T13:22:51.832Z,72.03
2018-11-05T13:25:20.784Z,70.33
2018-11-05T13:27:50.432Z,63.63
2018-11-05T13:30:19.354Z,64.43
2018-11-05T13:32:48.255Z,64.10
2018-11-05T13:35:18.388Z,61.97
2018-11-05T13:37:47.791Z,62.97
2018-11-05T13:40:24.145Z,66.63
2018-11-05T13:42:53.039Z,73.13
2018-11-05T13:45:22.500Z,71.50
2018-11-05T13:47:51.545Z,76.27
2018-11-05T13:50:20.125Z,64.43
2018-11-05T13:52:48.958Z,72.97
2018-11-05T13:55:17.930Z,71.03
2018-11-05T13:57:47.916Z,80.97
2018-11-05T14:00:18.054Z,71.97
2018-11-05T14:02:47.496Z,96.30
2018-11-05T14:05:16.579Z,104.87
2018-11-05T14:07:45.652Z,89.90
2018-11-05T14:10:17.980Z,92.23
2018-11-05T14:12:47.376Z,113.80
2018-11-05T14:15:16.317Z,148.20
2018-11-05T14:17:46.806Z,120.07
2018-11-05T14:20:17.125Z,87.17
2018-11-05T14:22:46.008Z,149.00
2018-11-05T14:25:16.242Z,168.83
2018-11-05T14:27:46.685Z,182.43
2018-11-05T14:30:15.706Z,93.77
2018-11-05T14:32:45.755Z,107.90
2018-11-05T14:35:14.837Z,98.70
2018-11-05T14:37:43.692Z,122.40
2018-11-05T14:40:14.191Z,93.87
2018-11-05T14:42:43.165Z,154.40
2018-11-05T14:45:20.004Z,85.63
2018-11-05T14:47:51.828Z,85.00
2018-11-05T14:50:22.325Z,92.57
2018-11-05T14:52:51.982Z,103.80
2018-11-05T14:55:21.096Z,131.60
2018-11-05T14:57:51.053Z,98.43
2018-11-05T15:00:23.575Z,107.13
2018-11-05T15:02:52.587Z,97.30
2018-11-05T15:05:21.524Z,102.37
2018-11-05T15:07:50.824Z,105.73
2018-11-05T15:10:21.083Z,102.03
2018-11-05T15:12:50.015Z,102.73
2018-11-05T15:15:19.643Z,96.07
2018-11-05T15:17:48.691Z,92.40
2018-11-05T15:20:19.776Z,111.63
2018-11-05T15:22:48.490Z,103.87
2018-11-05T15:25:17.699Z,79.50
2018-11-05T15:27:46.641Z,82.60
2018-11-05T15:30:17.482Z,90.87
2018-11-05T15:32:46.653Z,103.87
2018-11-05T15:35:15.813Z,86.47
2018-11-05T15:37:45.071Z,95.97
2018-11-05T15:40:15.060Z,85.67
2018-11-05T15:42:44.320Z,89.87
2018-11-05T15:45:15.461Z,85.07
2018-11-05T15:47:44.405Z,111.50
2018-11-05T15:50:14.613Z,112.47
2018-11-05T15:52:43.895Z,88.67
2018-11-05T15:55:12.678Z,95.00
2018-11-05T15:57:41.682Z,82.23
2018-11-05T16:00:28.054Z,80.63
2018-11-05T16:02:59.252Z,106.03
2018-11-05T16:05:28.444Z,81.20
2018-11-05T16:07:57.496Z,82.27
2018-11-05T16:10:26.348Z,76.30
2018-11-05T16:12:55.245Z,96.77
2018-11-05T16:15:24.775Z,86.40
2018-11-05T16:17:53.706Z,87.27
2018-11-05T16:20:23.194Z,74.40
2018-11-05T16:22:52.948Z,79.80
2018-11-05T16:25:21.783Z,94.87
2018-11-05T16:27:50.661Z,89.97
2018-11-05T16:30:20.839Z,103.13
2018-11-05T16:32:50.544Z,131.67
2018-11-05T16:35:19.579Z,90.37
2018-11-05T16:37:48.493Z,112.17
2018-11-05T16:40:18.182Z,76.63
2018-11-05T16:42:48.266Z,85.27
2018-11-05T16:45:17.207Z,80.77
2018-11-05T16:47:46.309Z,94.90
2018-11-05T16:50:22.326Z,113.13
2018-11-05T16:52:51.226Z,110.43
2018-11-05T16:55:20.283Z,99.17
2018-11-05T16:57:49.206Z,76.90
2018-11-05T17:00:18.358Z,79.50
2018-11-05T17:02:48.060Z,71.53
2018-11-05T17:05:17.175Z,67.23
2018-11-05T17:07:46.049Z,75.17
2018-11-05T17:10:15.317Z,62.27
2018-11-05T17:12:44.813Z,66.17
2018-11-05T17:15:15.096Z,72.37
2018-11-05T17:17:44.320Z,70.23
2018-11-05T17:20:17.132Z,77.43
2018-11-05T17:22:46.004Z,70.60
2018-11-05T17:25:15.438Z,71.40
2018-11-05T17:27:45.041Z,67.90
2018-11-05T17:30:17.017Z,70.80
2018-11-05T17:32:45.919Z,67.50
2018-11-05T17:35:15.272Z,66.53
2018-11-05T17:37:44.649Z,72.53
2018-11-05T17:40:15.009Z,72.30
2018-11-05T17:42:43.951Z,70.63
2018-11-05T17:45:18.193Z,67.87
2018-11-05T17:47:47.750Z,74.43
2018-11-05T17:50:18.064Z,69.57
2018-11-05T17:52:47.016Z,71.90
2018-11-05T17:55:16.125Z,78.87
2018-11-05T17:57:46.285Z,76.23
2018-11-05T18:00:16.576Z,82.30
2018-11-05T18:02:45.470Z,73.37
2018-11-05T18:05:14.815Z,74.17
2018-11-05T18:07:44.017Z,74.10
2018-11-05T18:10:12.970Z,78.67
2018-11-05T18:12:41.886Z,77.63
2018-11-05T18:15:11.868Z,80.47
2018-11-05T18:17:42.052Z,78.83
2018-11-05T18:20:12.457Z,73.47
2018-11-05T18:22:41.453Z,77.40
2018-11-05T18:25:12.884Z,81.40
2018-11-05T18:27:44.206Z,77.03
2018-11-05T18:30:13.844Z,78.37
2018-11-05T18:32:42.754Z,87.43
2018-11-05T18:35:13.102Z,84.97
2018-11-05T18:37:43.782Z,79.77
2018-11-05T18:40:14.169Z,85.60
2018-11-05T18:42:43.599Z,86.93
2018-11-05T18:45:14.798Z,86.50
2018-11-05T18:47:43.817Z,92.13
2018-11-05T18:50:14.970Z,88.97
2018-11-05T18:52:44.205Z,94.17
2018-11-05T18:55:14.605Z,86.53
2018-11-05T18:57:43.554Z,96.70
2018-11-05T19:00:23.356Z,92.87
2018-11-05T19:02:53.049Z,92.07
2018-11-05T19:05:23.142Z,92.87
2018-11-05T19:07:52.090Z,86.07
2018-11-05T19:10:21.211Z,92.87
2018-11-05T19:12:50.897Z,94.27
2018-11-05T19:15:19.864Z,97.23
2018-11-05T19:17:49.297Z,92.03
2018-11-05T19:20:18.553Z,95.63
2018-11-05T19:22:47.642Z,105.27
2018-11-05T19:25:17.085Z,103.73
2018-11-05T19:27:45.938Z,98.80
2018-11-05T19:30:18.675Z,92.30
2018-11-05T19:32:47.560Z,96.17
2018-11-05T19:35:16.559Z,101.43
2018-11-05T19:37:45.440Z,94.87
2018-11-05T19:40:15.215Z,98.17
2018-11-05T19:42:45.228Z,97.80
2018-11-05T19:45:16.213Z,101.33
2018-11-05T19:47:45.075Z,110.13
2018-11-05T19:50:17.195Z,125.17
2018-11-05T19:52:46.949Z,123.97
2018-11-05T19:55:16.430Z,137.10
2018-11-05T19:57:46.139Z,125.03
2018-11-05T20:00:23.976Z,125.33
2018-11-05T20:02:53.209Z,121.60
2018-11-05T20:05:22.204Z,126.60
2018-11-05T20:07:51.761Z,193.97
2018-11-05T20:10:20.690Z,130.53
2018-11-05T20:12:49.582Z,156.37
2018-11-05T20:15:18.843Z,130.10
2018-11-05T20:17:48.604Z,109.80
2018-11-05T20:20:18.871Z,110.83
2018-11-05T20:22:47.906Z,96.47
2018-11-05T20:25:17.098Z,107.27
2018-11-05T20:27:46.047Z,105.07
2018-11-05T20:30:19.552Z,127.17
2018-11-05T20:32:49.776Z,112.97
2018-11-05T20:35:18.370Z,110.80
2018-11-05T20:37:47.289Z,101.03
2018-11-05T20:40:17.366Z,105.07
2018-11-05T20:42:47.751Z,103.40
2018-11-05T20:45:22.615Z,99.73
2018-11-05T20:47:51.579Z,108.80
2018-11-05T20:50:20.564Z,106.63
2018-11-05T20:52:49.475Z,104.20
2018-11-05T20:55:18.648Z,108.47
2018-11-05T20:57:47.677Z,112.00
2018-11-05T21:00:18.407Z,107.77
2018-11-05T21:02:47.374Z,108.33
2018-11-05T21:05:16.285Z,103.10
2018-11-05T21:07:45.302Z,108.23
2018-11-05T21:10:14.873Z,97.83
2018-11-05T21:12:44.264Z,103.47
2018-11-05T21:15:17.498Z,102.70
2018-11-05T21:17:47.713Z,100.77
2018-11-05T21:20:16.799Z,104.60
2018-11-05T21:22:46.338Z,109.83
2018-11-05T21:25:15.130Z,105.77
2018-11-05T21:27:44.381Z,107.73
2018-11-05T21:30:15.811Z,103.97
2018-11-05T21:32:44.750Z,114.47
2018-11-05T21:35:15.274Z,111.43
2018-11-05T21:37:44.674Z,99.67
2018-11-05T21:40:15.002Z,105.73
2018-11-05T21:42:43.996Z,120.07
2018-11-05T21:45:15.406Z,102.80
2018-11-05T21:47:44.978Z,107.43
2018-11-05T21:50:15.883Z,103.87
2018-11-05T21:52:45.277Z,112.70
2018-11-05T21:55:14.243Z,109.70
2018-11-05T21:57:44.581Z,105.77
2018-11-05T22:00:18.524Z,113.67
2018-11-05T22:02:52.930Z,108.73
2018-11-05T22:05:21.910Z,107.03
2018-11-05T22:07:50.751Z,103.80
2018-11-05T22:10:19.661Z,115.20
2018-11-05T22:12:48.634Z,117.47
2018-11-05T22:15:17.848Z,112.33
2018-11-05T22:17:46.953Z,109.97
2018-11-05T22:20:15.861Z,113.03
2018-11-05T22:22:44.769Z,98.57
2018-11-05T22:25:13.568Z,106.07
2018-11-05T22:27:43.163Z,102.70
2018-11-05T22:30:12.781Z,114.17
2018-11-05T22:32:41.682Z,103.37
2018-11-05T22:35:11.641Z,101.67
2018-11-05T22:37:40.616Z,106.07
2018-11-05T22:40:12.362Z,110.17
2018-11-05T22:42:41.787Z,110.20
2018-11-05T22:45:14.692Z,112.03
2018-11-05T22:47:44.576Z,115.77
2018-11-05T22:50:13.470Z,120.03
2018-11-05T22:52:42.765Z,113.40
2018-11-05T22:55:11.655Z,109.77
2018-11-05T22:57:40.697Z,110.73
2018-11-05T23:00:21.063Z,118.33
2018-11-05T23:02:55.544Z,107.37
2018-11-05T23:05:24.493Z,113.07
2018-11-05T23:07:54.449Z,111.80
2018-11-05T23:10:23.340Z,114.40
2018-11-05T23:12:52.269Z,106.47
2018-11-05T23:15:21.321Z,108.63
2018-11-05T23:17:50.725Z,114.77
2018-11-05T23:20:19.675Z,102.20
2018-11-05T23:22:48.501Z,109.00
2018-11-05T23:25:17.547Z,105.83
2018-11-05T23:27:46.413Z,109.57
2018-11-05T23:30:15.332Z,115.00
2018-11-05T23:32:44.248Z,119.47
2018-11-05T23:35:13.154Z,118.50
2018-11-05T23:37:42.104Z,123.60
2018-11-05T23:40:11.161Z,119.20
2018-11-05T23:42:40.232Z,111.30
2018-11-05T23:45:12.265Z,123.80
2018-11-05T23:47:41.340Z,118.40
2018-11-05T23:50:10.867Z,126.23
2018-11-05T23:52:40.156Z,118.17
2018-11-05T23:55:10.352Z,124.33
2018-11-05T23:57:39.253Z,119.17
